createdAt,value
2022-11-17T00:00:42.706Z,100194.66
2022-11-17T00:03:16.615Z,100197.56
2022-11-17T00:05:44.629Z,100202.06
2022-11-17T00:08:11.480Z,100200.44
2022-11-17T00:10:38.427Z,100199.41
2022-11-17T00:13:23.812Z,100208.19
2022-11-17T00:15:50.877Z,100204.13
2022-11-17T00:18:36.291Z,100188.50
2022-11-17T00:21:23.465Z,100195.09
2022-11-17T00:23:51.186Z,100195.91
2022-11-17T00:26:21.696Z,100184.91
2022-11-17T00:28:54.597Z,100185.13
2022-11-17T00:31:42.798Z,100180.03
2022-11-17T00:34:22.648Z,100179.66
2022-11-17T00:36:52.593Z,100176.78
2022-11-17T00:39:21.893Z,100189.72
2022-11-17T00:41:49.191Z,100190.75
2022-11-17T00:44:16.309Z,100184.47
2022-11-17T00:46:43.371Z,100182.41
2022-11-17T00:49:11.541Z,100174.66
2022-11-17T00:51:38.985Z,100176.28
2022-11-17T00:54:09.730Z,100183.66
2022-11-17T00:56:36.722Z,100181.25
2022-11-17T00:59:03.687Z,100173.25
2022-11-17T01:01:31.364Z,100176.16
2022-11-17T01:04:03.869Z,100183.31
2022-11-17T01:06:44.159Z,100190.47
2022-11-17T01:09:19.627Z,100174.16
2022-11-17T01:11:48.487Z,100179.72
2022-11-17T01:14:24.397Z,100176.69
2022-11-17T01:16:52.027Z,100171.59
2022-11-17T01:19:19.943Z,100175.88
2022-11-17T01:21:47.362Z,100168.34
2022-11-17T01:24:16.296Z,100172.41
2022-11-17T01:26:45.078Z,100161.41
2022-11-17T01:29:14.658Z,100163.63
2022-11-17T01:31:45.973Z,100155.88
2022-11-17T01:34:13.381Z,100153.91
2022-11-17T01:37:01.769Z,100170.22
2022-11-17T01:39:30.405Z,100162.22
2022-11-17T01:41:58.617Z,100152.72
2022-11-17T01:44:50.563Z,100163.50
2022-11-17T01:47:37.298Z,100150.44
2022-11-17T01:50:16.199Z,100143.72
2022-11-17T01:52:43.837Z,100138.41
2022-11-17T01:55:38.660Z,100123.50
2022-11-17T01:58:15.753Z,100139.66
2022-11-17T02:00:43.085Z,100138.25
2022-11-17T02:03:10.304Z,100143.94
2022-11-17T02:06:11.817Z,100138.16
2022-11-17T02:08:41.548Z,100140.59
2022-11-17T02:11:15.724Z,100142.22
2022-11-17T02:13:42.719Z,100138.41
2022-11-17T02:16:14.585Z,100146.72
2022-11-17T02:18:43.879Z,100148.34
2022-11-17T02:21:44.822Z,100139.56
2022-11-17T02:25:05.093Z,100130.66
2022-11-17T02:27:51.642Z,100139.66
2022-11-17T02:30:21.315Z,100134.78
2022-11-17T02:32:59.520Z,100131.34
2022-11-17T02:35:50.426Z,100124.41
2022-11-17T02:38:58.307Z,100138.25
2022-11-17T02:41:43.919Z,100127.28
2022-11-17T02:44:30.366Z,100108.91
2022-11-17T02:47:16.093Z,100127.50
2022-11-17T02:50:08.149Z,100122.19
2022-11-17T02:52:35.784Z,100122.88
2022-11-17T02:55:06.208Z,100098.94
2022-11-17T02:57:39.521Z,100109.94
2022-11-17T03:00:12.395Z,100102.78
2022-11-17T03:03:29.299Z,100092.38
2022-11-17T03:07:09.508Z,100104.16
2022-11-17T03:10:16.272Z,100096.66
2022-11-17T03:12:48.941Z,100098.94
2022-11-17T03:15:36.738Z,100098.50
2022-11-17T03:18:15.386Z,100094.66
2022-11-17T03:21:00.102Z,100108.75
2022-11-17T03:23:46.027Z,100105.06
2022-11-17T03:26:22.687Z,100091.19
2022-11-17T03:28:50.000Z,100102.06
2022-11-17T03:31:17.749Z,100088.78
2022-11-17T03:33:48.858Z,100089.34
2022-11-17T03:36:29.596Z,100084.03
2022-11-17T03:39:08.650Z,100094.09
2022-11-17T03:41:42.233Z,100093.47
2022-11-17T03:44:10.120Z,100090.63
2022-11-17T03:46:39.190Z,100089.81
2022-11-17T03:49:51.910Z,100099.75
2022-11-17T03:52:19.562Z,100085.31
2022-11-17T03:54:46.408Z,100105.06
2022-11-17T03:57:25.405Z,100098.13
2022-11-17T04:00:07.177Z,100090.63
2022-11-17T04:02:47.048Z,100077.31
2022-11-17T04:05:17.524Z,100088.53
2022-11-17T04:07:47.365Z,100074.66
2022-11-17T04:10:21.438Z,100083.22
2022-11-17T04:13:08.085Z,100093.84
2022-11-17T04:15:53.947Z,100088.53
2022-11-17T04:18:23.270Z,100090.16
2022-11-17T04:20:55.208Z,100074.56
2022-11-17T04:23:23.819Z,100082.53
2022-11-17T04:26:14.891Z,100073.31
2022-11-17T04:28:48.816Z,100072.72
2022-11-17T04:31:16.520Z,100071.09
2022-11-17T04:33:58.402Z,100070.06
2022-11-17T04:36:28.482Z,100072.94
2022-11-17T04:38:57.971Z,100071.91
2022-11-17T04:41:46.590Z,100065.78
2022-11-17T04:44:15.765Z,100063.13
2022-11-17T04:46:47.211Z,100057.00
2022-11-17T04:49:16.526Z,100071.69
2022-11-17T04:51:43.534Z,100057.38
2022-11-17T04:54:13.683Z,100057.94
2022-11-17T04:56:41.114Z,100060.38
2022-11-17T04:59:08.742Z,100048.59
2022-11-17T05:01:36.871Z,100057.25
2022-11-17T05:04:07.905Z,100051.72
2022-11-17T05:06:45.488Z,100057.38
2022-11-17T05:09:16.931Z,100053.34
2022-11-17T05:12:03.138Z,100058.44
2022-11-17T05:14:30.600Z,100056.00
2022-11-17T05:17:09.825Z,100049.63
2022-11-17T05:19:45.926Z,100044.31
2022-11-17T05:22:40.126Z,100045.59
2022-11-17T05:25:08.458Z,100053.56
2022-11-17T05:27:35.948Z,100048.03
2022-11-17T05:30:06.113Z,100042.94
2022-11-17T05:32:33.015Z,100027.56
2022-11-17T05:34:59.941Z,100022.03
2022-11-17T05:37:27.093Z,100016.69
2022-11-17T05:39:54.117Z,100018.31
2022-11-17T05:42:21.110Z,100019.72
2022-11-17T05:44:48.790Z,100004.81
2022-11-17T05:47:15.853Z,100016.81
2022-11-17T05:49:42.821Z,100010.69
2022-11-17T05:52:10.619Z,100006.41
2022-11-17T05:54:37.502Z,100004.56
2022-11-17T05:57:16.314Z,100009.44
2022-11-17T05:59:50.882Z,100007.00
2022-11-17T06:02:26.417Z,100003.06
2022-11-17T06:04:53.328Z,100006.78
2022-11-17T06:07:20.729Z,100022.84
2022-11-17T06:09:48.019Z,100019.38
2022-11-17T06:12:15.446Z,100018.56
2022-11-17T06:14:43.272Z,100017.06
2022-11-17T06:17:28.504Z,100003.88
2022-11-17T06:20:06.154Z,100011.53
2022-11-17T06:22:34.550Z,100029.66
2022-11-17T06:25:03.844Z,100020.06
2022-11-17T06:27:32.740Z,100019.63
2022-11-17T06:30:03.520Z,100018.56
2022-11-17T06:32:32.316Z,100022.03
2022-11-17T06:35:01.318Z,100005.97
2022-11-17T06:37:28.585Z,100018.34
2022-11-17T06:39:55.441Z,100015.91
2022-11-17T06:42:41.442Z,100008.75
2022-11-17T06:45:09.147Z,100005.41
2022-11-17T06:47:35.979Z,100005.16
2022-11-17T06:50:04.053Z,99997.75
2022-11-17T06:52:30.859Z,100008.41
2022-11-17T06:54:57.863Z,99995.47
2022-11-17T06:57:24.999Z,99987.50
2022-11-17T06:59:52.700Z,99983.00
2022-11-17T07:02:20.381Z,99995.81
2022-11-17T07:04:47.683Z,99985.41
2022-11-17T07:07:14.632Z,99973.97
2022-11-17T07:09:41.819Z,99983.09
2022-11-17T07:12:08.928Z,99982.41
2022-11-17T07:14:35.924Z,99966.44
2022-11-17T07:17:02.823Z,99974.19
2022-11-17T07:19:29.848Z,99967.84
2022-11-17T07:21:56.692Z,99965.75
2022-11-17T07:24:23.696Z,99956.16
2022-11-17T07:26:50.740Z,99965.75
2022-11-17T07:29:17.677Z,99964.56
2022-11-17T07:31:44.520Z,99962.38
2022-11-17T07:34:11.894Z,99962.97
2022-11-17T07:36:39.267Z,99961.69
2022-11-17T07:39:06.953Z,99973.47
2022-11-17T07:41:33.934Z,99983.88
2022-11-17T07:44:00.909Z,99992.25
2022-11-17T07:46:27.766Z,99990.63
2022-11-17T07:48:55.604Z,99984.84
2022-11-17T07:51:22.466Z,99981.59
2022-11-17T07:53:49.503Z,99988.06
2022-11-17T07:56:16.558Z,100005.19
2022-11-17T07:58:43.586Z,99983.31
2022-11-17T08:01:15.346Z,99988.19
2022-11-17T08:03:45.873Z,99987.38
2022-11-17T08:06:12.979Z,99985.28
2022-11-17T08:08:40.351Z,99983.19
2022-11-17T08:11:12.467Z,99971.97
2022-11-17T08:13:41.082Z,99985.63
2022-11-17T08:16:09.867Z,99967.69
2022-11-17T08:18:37.412Z,99976.00
2022-11-17T08:21:13.971Z,99971.25
2022-11-17T08:23:42.118Z,99968.38
2022-11-17T08:26:11.126Z,99974.50
2022-11-17T08:28:38.773Z,99969.28
2022-11-17T08:31:08.049Z,99963.72
2022-11-17T08:33:35.875Z,99976.78
2022-11-17T08:36:04.609Z,99962.19
2022-11-17T08:38:31.990Z,99955.25
2022-11-17T08:41:07.426Z,99958.72
2022-11-17T08:43:35.515Z,99950.75
2022-11-17T08:46:02.897Z,99957.22
2022-11-17T08:48:31.547Z,99954.88
2022-11-17T08:50:59.360Z,99952.22
2022-11-17T08:53:27.032Z,99947.81
2022-11-17T08:55:53.954Z,99953.13
2022-11-17T08:58:21.122Z,99944.34
2022-11-17T09:00:48.141Z,99943.28
2022-11-17T09:03:15.272Z,99947.81
2022-11-17T09:05:49.567Z,99972.91
2022-11-17T09:08:44.011Z,99941.66
2022-11-17T09:11:10.756Z,99958.22
2022-11-17T09:13:38.950Z,99959.59
2022-11-17T09:16:09.181Z,99961.22
2022-11-17T09:18:38.385Z,99962.25
2022-11-17T09:21:13.629Z,99962.25
2022-11-17T09:23:41.091Z,99967.81
2022-11-17T09:26:12.139Z,99981.72
2022-11-17T09:28:39.611Z,99967.34
2022-11-17T09:31:13.927Z,99963.53
2022-11-17T09:33:42.152Z,99974.75
2022-11-17T09:36:10.581Z,99972.69
2022-11-17T09:38:38.902Z,99972.44
2022-11-17T09:41:33.883Z,99967.44
2022-11-17T09:44:27.284Z,99965.50
2022-11-17T09:46:57.420Z,99955.66
2022-11-17T09:49:40.578Z,99953.00
2022-11-17T09:52:19.827Z,99952.75
2022-11-17T09:54:58.135Z,99960.50
2022-11-17T09:57:44.162Z,99959.69
2022-11-17T10:00:20.523Z,99967.09
2022-11-17T10:02:48.041Z,99966.31
2022-11-17T10:05:26.766Z,99972.44
2022-11-17T10:08:00.016Z,99953.78
2022-11-17T10:10:45.742Z,99965.03
2022-11-17T10:13:49.686Z,99966.06
2022-11-17T10:16:16.875Z,99966.78
2022-11-17T10:18:43.698Z,99955.88
2022-11-17T10:21:10.782Z,99956.47
2022-11-17T10:23:46.886Z,99957.38
2022-11-17T10:26:15.978Z,99960.84
2022-11-17T10:28:44.457Z,99948.66
2022-11-17T10:31:16.008Z,99943.81
2022-11-17T10:33:51.336Z,99934.91
2022-11-17T10:36:29.156Z,99945.66
2022-11-17T10:38:59.393Z,99934.78
2022-11-17T10:41:43.811Z,99934.28
2022-11-17T10:44:24.134Z,99939.72
2022-11-17T10:47:08.004Z,99938.66
2022-11-17T10:49:39.897Z,99934.06
2022-11-17T10:52:09.591Z,99935.91
2022-11-17T10:54:36.756Z,99932.78
2022-11-17T10:57:20.939Z,99926.16
2022-11-17T10:59:57.587Z,99927.19
2022-11-17T11:02:29.628Z,99915.50
2022-11-17T11:05:10.211Z,99919.44
2022-11-17T11:07:38.450Z,99922.69
2022-11-17T11:10:30.633Z,99903.00
2022-11-17T11:13:13.971Z,99892.25
2022-11-17T11:15:41.182Z,99891.78
2022-11-17T11:18:19.418Z,99890.47
2022-11-17T11:21:08.938Z,99879.03
2022-11-17T11:23:44.040Z,99872.06
2022-11-17T11:26:40.467Z,99875.31
2022-11-17T11:29:30.323Z,99873.44
2022-11-17T11:32:04.187Z,99887.00
2022-11-17T11:35:34.868Z,99871.59
2022-11-17T11:38:22.996Z,99863.84
2022-11-17T11:41:51.898Z,99875.06
2022-11-17T11:44:53.204Z,99866.75
2022-11-17T11:47:55.263Z,99865.47
2022-11-17T11:50:31.614Z,99866.75
2022-11-17T11:53:17.733Z,99851.81
2022-11-17T11:55:49.493Z,99859.31
2022-11-17T11:58:25.780Z,99851.34
2022-11-17T12:01:05.480Z,99839.47
2022-11-17T12:04:13.070Z,99857.47
2022-11-17T12:06:53.949Z,99865.47
2022-11-17T12:09:24.300Z,99868.38
2022-11-17T12:12:03.012Z,99852.94
2022-11-17T12:14:36.415Z,99850.28
2022-11-17T12:17:25.997Z,99854.31
2022-11-17T12:19:59.751Z,99846.56
2022-11-17T12:22:57.710Z,99852.38
2022-11-17T12:25:35.016Z,99845.69
2022-11-17T12:28:40.421Z,99864.16
2022-11-17T12:31:25.908Z,99848.44
2022-11-17T12:33:52.784Z,99850.28
2022-11-17T12:36:31.748Z,99852.13
2022-11-17T12:39:01.809Z,99848.91
2022-11-17T12:41:54.563Z,99856.41
2022-11-17T12:44:47.528Z,99851.34
2022-11-17T12:47:31.947Z,99853.44
2022-11-17T12:50:17.932Z,99854.00
2022-11-17T12:53:09.573Z,99853.44
2022-11-17T12:56:00.574Z,99844.88
2022-11-17T12:58:57.694Z,99842.44
2022-11-17T13:01:46.715Z,99853.66
2022-11-17T13:04:19.177Z,99849.16
2022-11-17T13:07:01.367Z,99847.06
2022-11-17T13:09:33.383Z,99846.81
2022-11-17T13:12:07.711Z,99841.72
2022-11-17T13:14:51.913Z,99841.25
2022-11-17T13:17:23.639Z,99836.97
2022-11-17T13:20:12.893Z,99840.69
2022-11-17T13:22:42.105Z,99834.22
2022-11-17T13:25:27.446Z,99845.44
2022-11-17T13:27:59.800Z,99852.88
2022-11-17T13:30:32.569Z,99846.50
2022-11-17T13:33:03.631Z,99840.59
2022-11-17T13:35:34.188Z,99840.84
2022-11-17T13:38:22.514Z,99832.03
2022-11-17T13:40:52.537Z,99818.16
2022-11-17T13:43:24.502Z,99835.19
2022-11-17T13:45:53.833Z,99824.53
2022-11-17T13:48:38.747Z,99833.34
2022-11-17T13:51:23.102Z,99829.84
2022-11-17T13:53:56.455Z,99840.75
2022-11-17T13:56:39.459Z,99834.53
2022-11-17T13:59:26.101Z,99824.69
2022-11-17T14:02:15.323Z,99831.06
2022-11-17T14:05:23.178Z,99829.69
2022-11-17T14:07:53.309Z,99827.19
2022-11-17T14:10:20.131Z,99820.47
2022-11-17T14:12:51.988Z,99842.81
2022-11-17T14:15:26.801Z,99840.41
2022-11-17T14:17:57.413Z,99818.78
2022-11-17T14:20:24.433Z,99826.28
2022-11-17T14:23:13.555Z,99831.13
2022-11-17T14:25:42.200Z,99813.22
2022-11-17T14:28:21.196Z,99812.50
2022-11-17T14:30:53.887Z,99822.97
2022-11-17T14:33:21.797Z,99828.06
2022-11-17T14:35:56.969Z,99811.19
2022-11-17T14:38:24.286Z,99827.47
2022-11-17T14:40:53.368Z,99834.91
2022-11-17T14:43:21.742Z,99824.50
2022-11-17T14:45:52.009Z,99829.00
2022-11-17T14:48:20.147Z,99821.75
2022-11-17T14:50:48.228Z,99831.81
2022-11-17T14:53:15.419Z,99824.31
2022-11-17T14:55:42.267Z,99831.00
2022-11-17T14:58:10.090Z,99823.28
2022-11-17T15:00:37.548Z,99830.44
2022-11-17T15:03:04.919Z,99825.34
2022-11-17T15:05:31.951Z,99839.72
2022-11-17T15:07:59.192Z,99818.91
2022-11-17T15:10:26.047Z,99833.81
2022-11-17T15:12:53.400Z,99820.19
2022-11-17T15:15:20.489Z,99820.75
2022-11-17T15:17:49.516Z,99816.16
2022-11-17T15:20:17.050Z,99827.59
2022-11-17T15:22:44.456Z,99803.56
2022-11-17T15:25:11.378Z,99823.56
2022-11-17T15:27:38.330Z,99824.38
2022-11-17T15:30:06.625Z,99815.44
2022-11-17T15:32:33.515Z,99818.34
2022-11-17T15:35:00.335Z,99822.38
2022-11-17T15:37:27.559Z,99818.91
2022-11-17T15:39:54.368Z,99821.81
2022-11-17T15:42:21.298Z,99815.69
2022-11-17T15:44:48.219Z,99827.38
2022-11-17T15:47:15.135Z,99826.00
2022-11-17T15:49:41.966Z,99818.50
2022-11-17T15:52:09.292Z,99823.91
2022-11-17T15:54:36.147Z,99826.22
2022-11-17T15:57:03.961Z,99824.63
2022-11-17T15:59:30.980Z,99828.88
2022-11-17T16:01:58.019Z,99824.84
2022-11-17T16:04:24.972Z,99836.06
2022-11-17T16:06:52.385Z,99827.28
2022-11-17T16:09:19.455Z,99820.69
2022-11-17T16:11:46.651Z,99815.84
2022-11-17T16:14:15.078Z,99823.25
2022-11-17T16:16:43.569Z,99825.56
2022-11-17T16:19:10.463Z,99802.91
2022-11-17T16:21:37.723Z,99818.16
2022-11-17T16:24:05.287Z,99822.34
2022-11-17T16:26:32.568Z,99816.44
2022-11-17T16:29:02.227Z,99824.31
2022-11-17T16:31:32.353Z,99822.47
2022-11-17T16:34:05.296Z,99820.75
2022-11-17T16:36:36.800Z,99823.41
2022-11-17T16:39:07.732Z,99813.25
2022-11-17T16:41:41.097Z,99824.09
2022-11-17T16:44:14.777Z,99815.78
2022-11-17T16:46:45.194Z,99814.97
2022-11-17T16:49:15.765Z,99812.78
2022-11-17T16:51:49.311Z,99813.00
2022-11-17T16:54:18.150Z,99811.63
2022-11-17T16:56:45.557Z,99808.66
2022-11-17T16:59:13.166Z,99819.84
2022-11-17T17:01:40.518Z,99817.19
2022-11-17T17:04:10.019Z,99812.34
2022-11-17T17:06:41.523Z,99805.19
2022-11-17T17:09:10.345Z,99811.19
2022-11-17T17:11:38.010Z,99818.59
2022-11-17T17:14:09.189Z,99821.84
2022-11-17T17:16:37.632Z,99822.88
2022-11-17T17:19:09.896Z,99824.38
2022-11-17T17:21:38.516Z,99822.78
2022-11-17T17:24:06.222Z,99830.97
2022-11-17T17:26:34.609Z,99839.19
2022-11-17T17:29:04.149Z,99827.97
2022-11-17T17:31:35.445Z,99820.00
2022-11-17T17:34:04.059Z,99826.13
2022-11-17T17:36:31.852Z,99823.25
2022-11-17T17:39:01.968Z,99821.03
2022-11-17T17:41:37.521Z,99818.84
2022-11-17T17:44:07.118Z,99820.94
2022-11-17T17:46:37.402Z,99821.75
2022-11-17T17:49:05.057Z,99820.94
2022-11-17T17:51:32.992Z,99824.41
2022-11-17T17:54:01.892Z,99827.06
2022-11-17T17:56:30.533Z,99827.06
2022-11-17T17:58:58.473Z,99831.00
2022-11-17T18:01:28.665Z,99825.22
2022-11-17T18:04:01.445Z,99827.75
2022-11-17T18:06:28.904Z,99844.06
2022-11-17T18:08:57.296Z,99824.06
2022-11-17T18:11:25.600Z,99829.38
2022-11-17T18:13:54.146Z,99839.19
2022-11-17T18:16:31.719Z,99833.06
2022-11-17T18:19:05.455Z,99830.31
2022-11-17T18:21:32.970Z,99826.84
2022-11-17T18:24:02.331Z,99824.19
2022-11-17T18:26:35.608Z,99833.44
2022-11-17T18:29:06.925Z,99824.06
2022-11-17T18:31:36.289Z,99825.69
2022-11-17T18:34:20.918Z,99829.25
2022-11-17T18:36:52.491Z,99831.91
2022-11-17T18:39:19.856Z,99827.75
2022-11-17T18:41:46.989Z,99836.28
2022-11-17T18:44:16.930Z,99827.97
2022-11-17T18:46:43.950Z,99833.28
2022-11-17T18:49:10.986Z,99833.75
2022-11-17T18:51:38.303Z,99823.13
2022-11-17T18:54:06.151Z,99843.56
2022-11-17T18:56:35.821Z,99838.50
2022-11-17T18:59:06.633Z,99833.53
2022-11-17T19:01:33.662Z,99833.06
2022-11-17T19:04:01.086Z,99841.59
2022-11-17T19:06:28.608Z,99841.59
2022-11-17T19:08:58.481Z,99842.06
2022-11-17T19:11:30.167Z,99841.50
2022-11-17T19:14:02.064Z,99841.25
2022-11-17T19:16:30.275Z,99847.50
2022-11-17T19:18:57.858Z,99841.59
2022-11-17T19:21:28.450Z,99841.38
2022-11-17T19:23:58.663Z,99840.00
2022-11-17T19:26:28.770Z,99838.59
2022-11-17T19:28:58.023Z,99849.69
2022-11-17T19:31:26.383Z,99841.94
2022-11-17T19:33:54.159Z,99844.03
2022-11-17T19:36:25.040Z,99849.56
2022-11-17T19:38:55.046Z,99848.97
2022-11-17T19:41:27.904Z,99847.00
2022-11-17T19:43:57.971Z,99844.25
2022-11-17T19:46:27.043Z,99854.50
2022-11-17T19:48:55.148Z,99862.47
2022-11-17T19:51:25.209Z,99854.97
2022-11-17T19:53:55.505Z,99860.28
2022-11-17T19:56:24.597Z,99858.53
2022-11-17T19:58:53.652Z,99858.75
2022-11-17T20:01:23.181Z,99857.59
2022-11-17T20:03:50.938Z,99855.75
2022-11-17T20:06:22.110Z,99865.56
2022-11-17T20:08:49.350Z,99855.03
2022-11-17T20:11:22.765Z,99857.69
2022-11-17T20:13:50.059Z,99855.50
2022-11-17T20:16:26.068Z,99871.59
2022-11-17T20:18:58.916Z,99875.75
2022-11-17T20:21:27.568Z,99856.59
2022-11-17T20:23:55.679Z,99867.66
2022-11-17T20:26:26.304Z,99868.47
2022-11-17T20:28:55.414Z,99871.34
2022-11-17T20:31:24.898Z,99870.16
2022-11-17T20:33:56.355Z,99872.38
2022-11-17T20:36:25.943Z,99874.44
2022-11-17T20:38:56.043Z,99865.09
2022-11-17T20:41:24.181Z,99871.44
2022-11-17T20:43:53.733Z,99866.13
2022-11-17T20:46:22.396Z,99874.31
2022-11-17T20:48:49.882Z,99878.81
2022-11-17T20:51:20.212Z,99876.16
2022-11-17T20:53:47.266Z,99884.94
2022-11-17T20:56:16.443Z,99877.41
2022-11-17T20:58:44.232Z,99873.16
2022-11-17T21:01:20.819Z,99874.31
2022-11-17T21:03:48.094Z,99879.84
2022-11-17T21:06:15.724Z,99870.25
2022-11-17T21:08:44.871Z,99882.84
2022-11-17T21:11:35.327Z,99876.75
2022-11-17T21:14:04.683Z,99885.72
2022-11-17T21:16:32.354Z,99877.56
2022-11-17T21:18:59.648Z,99872.25
2022-11-17T21:21:26.753Z,99879.97
2022-11-17T21:23:54.766Z,99879.16
2022-11-17T21:26:22.832Z,99871.66
2022-11-17T21:28:50.295Z,99882.28
2022-11-17T21:31:26.415Z,99874.19
2022-11-17T21:33:55.079Z,99880.53
2022-11-17T21:36:23.767Z,99875.06
2022-11-17T21:38:51.798Z,99874.50
2022-11-17T21:41:25.797Z,99869.63
2022-11-17T21:43:55.466Z,99882.66
2022-11-17T21:46:25.285Z,99889.59
2022-11-17T21:48:54.934Z,99889.59
2022-11-17T21:51:34.237Z,99880.03
2022-11-17T21:54:04.959Z,99887.16
2022-11-17T21:56:32.523Z,99889.81
2022-11-17T21:59:05.594Z,99882.31
2022-11-17T22:01:33.353Z,99890.03
2022-11-17T22:04:00.848Z,99892.31
2022-11-17T22:06:28.746Z,99887.63
2022-11-17T22:08:56.849Z,99897.06
2022-11-17T22:11:36.214Z,99892.31
2022-11-17T22:14:19.137Z,99899.13
2022-11-17T22:16:51.978Z,99897.06
2022-11-17T22:19:21.157Z,99893.22
2022-11-17T22:21:51.106Z,99901.84
2022-11-17T22:24:19.381Z,99897.94
2022-11-17T22:26:47.223Z,99902.22
2022-11-17T22:29:18.599Z,99891.97
2022-11-17T22:31:47.209Z,99903.97
2022-11-17T22:34:15.540Z,99893.22
2022-11-17T22:36:43.200Z,99907.50
2022-11-17T22:39:10.408Z,99915.47
2022-11-17T22:41:37.373Z,99906.34
2022-11-17T22:44:05.160Z,99915.91
2022-11-17T22:46:32.580Z,99909.00
2022-11-17T22:48:59.679Z,99915.09
2022-11-17T22:51:45.293Z,99922.47
2022-11-17T22:54:12.763Z,99916.22
2022-11-17T22:56:39.660Z,99934.91
2022-11-17T22:59:07.227Z,99932.72
2022-11-17T23:01:34.249Z,99934.56
2022-11-17T23:04:01.220Z,99938.00
2022-11-17T23:06:28.551Z,99927.84
2022-11-17T23:08:57.361Z,99933.97
2022-11-17T23:11:40.539Z,99930.34
2022-11-17T23:14:11.207Z,99926.44
2022-11-17T23:16:38.760Z,99941.78
2022-11-17T23:19:06.691Z,99942.59
2022-11-17T23:21:34.230Z,99932.19
2022-11-17T23:24:01.220Z,99939.94
2022-11-17T23:26:28.286Z,99938.09
2022-11-17T23:28:55.505Z,99949.50
2022-11-17T23:31:22.491Z,99952.75
2022-11-17T23:33:49.430Z,99938.91
2022-11-17T23:36:20.171Z,99936.25
2022-11-17T23:38:49.185Z,99930.34
2022-11-17T23:41:19.321Z,99934.03
2022-11-17T23:43:50.566Z,99931.81
2022-11-17T23:46:21.247Z,99942.44
2022-11-17T23:48:48.555Z,99945.09
2022-11-17T23:51:19.246Z,99943.91
2022-11-17T23:53:46.795Z,99946.13
2022-11-17T23:56:15.251Z,99944.13
2022-11-17T23:58:44.310Z,99949.19
